Time;durP1;ratioP1;P1;durP2;ratioP2;P2;SDS_P1;SDS_P2;PMS_P1;PMS_P2;Temp;Humidity;BMP_temperature;BMP_pressure;BME280_temperature;BME280_humidity;BME280_pressure;Samples;Min_cycle;Max_cycle;Signal;HPM_P1;HPM_P2
2022/05/12 00:01:02;;;;;;;;;;;30.10;38.90;;;;;;5114657;28;1865;-44
2022/05/12 00:03:29;;;;;;;;;;;30.10;39.00;;;;;;5114916;28;1910;-44
2022/05/12 00:05:56;;;;;;;;;;;30.10;38.90;;;;;;5115898;28;943;-44
2022/05/12 00:08:22;;;;;;;;;;;30.10;38.90;;;;;;5114963;28;989;-43
2022/05/12 00:10:49;;;;;;;;;;;30.00;39.00;;;;;;5114388;28;1031;-42
2022/05/12 00:13:17;;;;;;;;;;;30.00;39.20;;;;;;5114704;28;876;-40
2022/05/12 00:15:44;;;;;;;;;;;29.90;39.20;;;;;;5115566;28;972;-44
2022/05/12 00:18:11;;;;;;;;;;;29.90;39.30;;;;;;5117052;28;961;-45
2022/05/12 00:20:39;;;;;;;;;;;29.90;39.30;;;;;;5119142;28;924;-44
2022/05/12 00:23:06;;;;;;;;;;;29.80;39.40;;;;;;5119246;28;1922;-45
2022/05/12 00:25:33;;;;;;;;;;;29.80;39.40;;;;;;5120099;28;940;-44
2022/05/12 00:28:00;;;;;;;;;;;29.80;39.40;;;;;;5119564;28;1106;-41
2022/05/12 00:30:28;;;;;;;;;;;29.90;39.50;;;;;;5120211;28;975;-43
2022/05/12 00:32:55;;;;;;;;;;;29.80;39.30;;;;;;5119571;28;996;-41
2022/05/12 00:35:22;;;;;;;;;;;30.00;39.30;;;;;;5119395;28;1011;-44
2022/05/12 00:37:49;;;;;;;;;;;29.90;40.40;;;;;;5119433;28;1000;-45
2022/05/12 00:40:16;;;;;;;;;;;30.00;39.20;;;;;;5119295;28;1061;-39
2022/05/12 00:42:54;;;;;;;;;;;30.00;39.20;;;;;;5119689;28;1037;-43
2022/05/12 00:45:21;;;;;;;;;;;30.00;39.30;;;;;;5118456;28;2027;-42
2022/05/12 00:47:49;;;;;;;;;;;30.00;39.30;;;;;;5118811;28;986;-42
2022/05/12 00:50:16;;;;;;;;;;;30.00;39.20;;;;;;5118821;28;797;-42
2022/05/12 00:52:43;;;;;;;;;;;30.00;39.10;;;;;;5119676;28;1024;-42
2022/05/12 00:55:12;;;;;;;;;;;30.10;39.10;;;;;;5118411;28;948;-42
2022/05/12 00:57:41;;;;;;;;;;;29.90;39.20;;;;;;5118433;28;1007;-43
2022/05/12 01:00:09;;;;;;;;;;;30.00;39.10;;;;;;5118556;28;940;-42
2022/05/12 01:02:37;;;;;;;;;;;30.00;39.10;;;;;;5118898;28;976;-43
2022/05/12 01:05:05;;;;;;;;;;;30.10;39.10;;;;;;5118206;28;1901;-41
2022/05/12 01:07:32;;;;;;;;;;;30.00;39.20;;;;;;5118409;28;1027;-43
2022/05/12 01:10:00;;;;;;;;;;;30.00;39.10;;;;;;5120448;28;1003;-42
2022/05/12 01:12:27;;;;;;;;;;;29.90;39.30;;;;;;5120188;28;1010;-44
2022/05/12 01:14:54;;;;;;;;;;;29.90;39.30;;;;;;5119742;28;943;-43
2022/05/12 01:17:23;;;;;;;;;;;29.90;39.30;;;;;;5119086;28;987;-43
2022/05/12 01:19:51;;;;;;;;;;;29.90;39.20;;;;;;5119161;28;1108;-42
2022/05/12 01:22:33;;;;;;;;;;;29.90;39.40;;;;;;5117256;28;1008;-43
2022/05/12 01:25:01;;;;;;;;;;;29.90;39.50;;;;;;5118717;28;1902;-44
2022/05/12 01:27:30;;;;;;;;;;;29.80;39.30;;;;;;5117968;28;947;-44
2022/05/12 01:29:58;;;;;;;;;;;29.80;39.40;;;;;;5117514;28;987;-42
2022/05/12 01:32:26;;;;;;;;;;;29.80;39.50;;;;;;5116846;28;974;-43
2022/05/12 01:34:53;;;;;;;;;;;29.80;39.50;;;;;;5117440;28;995;-44
2022/05/12 01:37:20;;;;;;;;;;;29.90;39.40;;;;;;5117804;28;992;-44
2022/05/12 01:39:47;;;;;;;;;;;29.80;39.40;;;;;;5117144;28;948;-44
2022/05/12 01:42:15;;;;;;;;;;;29.80;39.40;;;;;;5116913;28;956;-43
2022/05/12 01:44:43;;;;;;;;;;;29.90;39.30;;;;;;5116945;28;1996;-43
2022/05/12 01:47:10;;;;;;;;;;;29.90;39.30;;;;;;5117000;28;1012;-43
2022/05/12 01:49:37;;;;;;;;;;;29.90;39.20;;;;;;5116722;28;983;-44
2022/05/12 01:52:04;;;;;;;;;;;30.00;39.30;;;;;;5117509;28;925;-44
2022/05/12 01:54:31;;;;;;;;;;;29.90;39.30;;;;;;5117209;28;1013;-46
2022/05/12 01:56:58;;;;;;;;;;;29.90;39.20;;;;;;5117023;28;1196;-46
2022/05/12 01:59:26;;;;;;;;;;;29.90;39.30;;;;;;5117350;28;991;-45
2022/05/12 02:01:53;;;;;;;;;;;29.90;39.20;;;;;;5116563;28;963;-45
2022/05/12 02:04:20;;;;;;;;;;;29.90;39.20;;;;;;5116499;28;1986;-46
2022/05/12 02:06:47;;;;;;;;;;;29.90;39.20;;;;;;5116310;28;992;-45
2022/05/12 02:09:14;;;;;;;;;;;29.90;39.30;;;;;;5115918;28;996;-47
2022/05/12 02:11:41;;;;;;;;;;;29.80;39.30;;;;;;5117007;28;937;-46
2022/05/12 02:14:08;;;;;;;;;;;29.90;39.20;;;;;;5118420;28;975;-46
2022/05/12 02:16:36;;;;;;;;;;;29.90;39.20;;;;;;5118030;28;996;-45
2022/05/12 02:19:04;;;;;;;;;;;29.80;39.20;;;;;;5118103;28;936;-46
2022/05/12 02:21:31;;;;;;;;;;;29.80;39.30;;;;;;5115605;28;925;-47
2022/05/12 02:23:58;;;;;;;;;;;29.80;39.20;;;;;;5115592;28;1886;-49
2022/05/12 02:26:24;;;;;;;;;;;29.70;39.20;;;;;;5115669;28;2931;-46
2022/05/12 02:28:51;;;;;;;;;;;29.80;39.30;;;;;;5115776;28;914;-46
2022/05/12 02:31:18;;;;;;;;;;;29.80;39.30;;;;;;5116444;28;1006;-45
2022/05/12 02:33:46;;;;;;;;;;;29.70;39.30;;;;;;5116547;28;1003;-47
2022/05/12 02:36:13;;;;;;;;;;;29.60;39.40;;;;;;5115678;28;1323;-46
2022/05/12 02:38:40;;;;;;;;;;;29.60;40.10;;;;;;5115719;28;1007;-44
2022/05/12 02:41:07;;;;;;;;;;;29.60;39.60;;;;;;5115454;28;1011;-48
2022/05/12 02:43:34;;;;;;;;;;;29.70;39.50;;;;;;5115605;28;1050;-46
2022/05/12 02:49:06;;;;;;;;;;;29.60;39.40;;;;;;5116941;28;655;-46
2022/05/12 02:51:33;;;;;;;;;;;29.70;39.20;;;;;;5116134;28;1023;-45
2022/05/12 02:54:00;;;;;;;;;;;29.70;39.30;;;;;;5115529;28;952;-45
2022/05/12 02:56:27;;;;;;;;;;;29.70;39.20;;;;;;5115464;28;1003;-45
2022/05/12 02:58:53;;;;;;;;;;;29.70;39.20;;;;;;5116839;28;1176;-46
2022/05/12 03:01:20;;;;;;;;;;;29.70;39.30;;;;;;5117082;28;1008;-49
2022/05/12 03:03:47;;;;;;;;;;;29.70;39.40;;;;;;5117643;28;1101;-44
2022/05/12 03:06:16;;;;;;;;;;;29.70;39.40;;;;;;5116783;28;1976;-45
2022/05/12 03:08:44;;;;;;;;;;;29.60;39.40;;;;;;5116839;28;916;-45
2022/05/12 03:11:11;;;;;;;;;;;29.60;39.40;;;;;;5117411;28;960;-46
2022/05/12 03:13:38;;;;;;;;;;;29.60;39.50;;;;;;5117475;28;1008;-45
2022/05/12 03:16:04;;;;;;;;;;;29.60;39.40;;;;;;5117209;28;979;-45
2022/05/12 03:18:31;;;;;;;;;;;29.50;39.60;;;;;;5117770;28;1804;-45
2022/05/12 03:20:58;;;;;;;;;;;29.60;39.40;;;;;;5117208;28;1700;-45
2022/05/12 03:23:26;;;;;;;;;;;29.50;39.40;;;;;;5117534;28;945;-46
2022/05/12 03:25:53;;;;;;;;;;;29.60;39.50;;;;;;5116999;28;1983;-45
2022/05/12 03:28:21;;;;;;;;;;;29.60;39.50;;;;;;5117140;28;961;-45
2022/05/12 03:30:48;;;;;;;;;;;29.50;39.50;;;;;;5117430;28;1031;-46
2022/05/12 03:33:15;;;;;;;;;;;29.50;39.50;;;;;;5116994;28;852;-46
2022/05/12 03:35:42;;;;;;;;;;;29.60;39.50;;;;;;5116828;28;991;-45
2022/05/12 03:38:09;;;;;;;;;;;29.50;39.50;;;;;;5116901;28;933;-45
2022/05/12 03:40:37;;;;;;;;;;;29.50;39.50;;;;;;5117161;28;976;-45
2022/05/12 03:43:03;;;;;;;;;;;29.50;39.60;;;;;;5116269;28;1064;-46
2022/05/12 03:45:30;;;;;;;;;;;29.50;39.50;;;;;;5116343;28;1905;-45
2022/05/12 03:47:57;;;;;;;;;;;29.40;39.50;;;;;;5117018;28;1161;-46
2022/05/12 03:50:25;;;;;;;;;;;29.50;39.70;;;;;;5116608;28;999;-45
2022/05/12 03:52:52;;;;;;;;;;;29.50;39.60;;;;;;5116830;28;985;-46
2022/05/12 03:55:20;;;;;;;;;;;29.40;39.50;;;;;;5120271;28;956;-45
2022/05/12 03:57:51;;;;;;;;;;;29.50;39.70;;;;;;5120359;28;1190;-46
2022/05/12 04:00:19;;;;;;;;;;;29.50;39.60;;;;;;5119804;28;1008;-45
2022/05/12 04:02:46;;;;;;;;;;;29.40;39.60;;;;;;5119799;27;1023;-46
2022/05/12 04:05:13;;;;;;;;;;;29.40;39.70;;;;;;5119283;28;1917;-45
2022/05/12 04:07:41;;;;;;;;;;;29.40;39.70;;;;;;5118944;28;940;-45
2022/05/12 04:10:09;;;;;;;;;;;29.40;39.80;;;;;;5118783;28;1011;-45
2022/05/12 04:12:35;;;;;;;;;;;29.40;39.80;;;;;;5118409;28;1000;-46
2022/05/12 04:15:04;;;;;;;;;;;29.40;39.70;;;;;;5119216;28;992;-47
2022/05/12 04:17:31;;;;;;;;;;;29.40;39.60;;;;;;5118992;28;1194;-47
2022/05/12 04:20:01;;;;;;;;;;;29.40;39.70;;;;;;5118743;28;972;-47
2022/05/12 04:22:28;;;;;;;;;;;29.30;39.60;;;;;;5119521;28;1023;-47
2022/05/12 04:24:55;;;;;;;;;;;29.30;39.80;;;;;;5117843;28;1902;-48
2022/05/12 04:27:22;;;;;;;;;;;29.30;39.80;;;;;;5118693;28;1524;-47
2022/05/12 04:29:49;;;;;;;;;;;29.30;39.70;;;;;;5119066;28;836;-47
2022/05/12 04:32:17;;;;;;;;;;;29.40;39.80;;;;;;5116877;28;1051;-47
2022/05/12 04:37:29;;;;;;;;;;;29.30;39.70;;;;;;5117116;28;976;-47
2022/05/12 04:39:56;;;;;;;;;;;29.30;39.70;;;;;;5117446;28;820;-47
2022/05/12 04:42:22;;;;;;;;;;;29.30;39.80;;;;;;5116887;28;957;-46
2022/05/12 04:44:49;;;;;;;;;;;29.30;39.80;;;;;;5116727;28;1897;-47
2022/05/12 04:47:17;;;;;;;;;;;29.30;39.90;;;;;;5117072;28;915;-47
2022/05/12 04:49:44;;;;;;;;;;;29.30;39.80;;;;;;5117075;28;888;-47
2022/05/12 04:52:11;;;;;;;;;;;29.30;39.80;;;;;;5116423;28;1001;-48
2022/05/12 04:54:38;;;;;;;;;;;29.30;39.80;;;;;;5116661;28;929;-47
2022/05/12 04:57:05;;;;;;;;;;;29.30;39.80;;;;;;5115763;28;1121;-47
2022/05/12 04:59:33;;;;;;;;;;;29.30;39.90;;;;;;5116055;28;964;-47
2022/05/12 05:02:00;;;;;;;;;;;29.30;39.90;;;;;;5116471;28;1090;-47
2022/05/12 05:04:28;;;;;;;;;;;29.30;39.90;;;;;;5115666;28;1019;-47
2022/05/12 05:06:56;;;;;;;;;;;29.30;39.90;;;;;;5114994;28;1917;-47
2022/05/12 05:09:23;;;;;;;;;;;29.20;39.80;;;;;;5115208;28;2067;-47
2022/05/12 05:11:50;;;;;;;;;;;29.30;39.90;;;;;;5115682;28;993;-47
2022/05/12 05:14:19;;;;;;;;;;;29.20;39.90;;;;;;5115988;28;997;-46
2022/05/12 05:16:46;;;;;;;;;;;29.30;39.90;;;;;;5114437;28;1001;-47
2022/05/12 05:19:13;;;;;;;;;;;29.20;39.80;;;;;;5115596;28;888;-48
2022/05/12 05:21:41;;;;;;;;;;;29.20;39.80;;;;;;5115099;28;991;-47
2022/05/12 05:24:09;;;;;;;;;;;29.20;40.00;;;;;;5114989;28;944;-47
2022/05/12 05:26:35;;;;;;;;;;;29.20;39.90;;;;;;5114905;28;1901;-47
2022/05/12 05:29:02;;;;;;;;;;;29.20;39.90;;;;;;5113607;28;929;-48
2022/05/12 05:31:29;;;;;;;;;;;29.20;39.90;;;;;;5114868;28;972;-47
2022/05/12 05:33:56;;;;;;;;;;;29.20;39.90;;;;;;5114677;28;933;-47
2022/05/12 05:36:23;;;;;;;;;;;29.20;40.00;;;;;;5115259;28;999;-47
2022/05/12 05:38:51;;;;;;;;;;;29.30;40.00;;;;;;5115063;28;989;-47
2022/05/12 05:41:18;;;;;;;;;;;29.20;39.90;;;;;;5113827;28;1040;-47
2022/05/12 05:43:45;;;;;;;;;;;29.30;40.00;;;;;;5115305;28;988;-46
2022/05/12 05:46:12;;;;;;;;;;;29.30;39.70;;;;;;5115050;28;1971;-45
2022/05/12 05:48:39;;;;;;;;;;;29.40;39.70;;;;;;5115461;28;1000;-44
2022/05/12 05:53:46;;;;;;;;;;;29.30;40.10;;;;;;5044980;28;1275;-45
2022/05/12 05:56:17;;;;;;;;;;;29.40;40.00;;;;;;5088010;28;983;-45
2022/05/12 05:58:44;;;;;;;;;;;29.30;40.00;;;;;;5088370;28;1304;-45
2022/05/12 06:01:11;;;;;;;;;;;29.30;39.80;;;;;;5111553;28;1079;-44
2022/05/12 06:03:38;;;;;;;;;;;29.30;39.60;;;;;;5096707;28;912;-43
2022/05/12 06:06:05;;;;;;;;;;;29.30;39.70;;;;;;5107604;28;1902;-43
2022/05/12 06:08:32;;;;;;;;;;;29.30;39.80;;;;;;5113969;28;1000;-44
2022/05/12 06:11:03;;;;;;;;;;;29.20;39.80;;;;;;5113445;28;920;-44
2022/05/12 06:13:33;;;;;;;;;;;29.20;39.80;;;;;;5114151;28;965;-39
2022/05/12 06:16:00;;;;;;;;;;;29.20;39.50;;;;;;5113043;28;1024;-45
2022/05/12 06:18:27;;;;;;;;;;;29.20;39.60;;;;;;5113712;28;1091;-44
2022/05/12 06:20:53;;;;;;;;;;;29.20;39.70;;;;;;5114524;28;1020;-44
2022/05/12 06:23:20;;;;;;;;;;;29.20;39.90;;;;;;5114064;28;1004;-44
2022/05/12 06:25:48;;;;;;;;;;;29.30;39.80;;;;;;5113496;28;1968;-42
2022/05/12 06:28:15;;;;;;;;;;;29.40;39.70;;;;;;5112163;28;892;-39
2022/05/12 06:30:43;;;;;;;;;;;29.40;39.70;;;;;;5113157;28;1029;-39
2022/05/12 06:33:15;;;;;;;;;;;29.40;40.00;;;;;;5113925;28;933;-39
2022/05/12 06:35:42;;;;;;;;;;;29.30;40.20;;;;;;5112646;28;1572;-39
2022/05/12 06:38:10;;;;;;;;;;;29.30;40.10;;;;;;5113613;28;969;-40
2022/05/12 06:40:37;;;;;;;;;;;29.30;40.30;;;;;;5113389;28;1024;-39
2022/05/12 06:43:05;;;;;;;;;;;29.20;40.30;;;;;;5113274;28;988;-42
2022/05/12 06:45:32;;;;;;;;;;;29.20;40.50;;;;;;5113226;28;1918;-39
2022/05/12 06:48:01;;;;;;;;;;;29.20;40.50;;;;;;5113202;28;1535;-39
2022/05/12 06:50:29;;;;;;;;;;;29.20;40.60;;;;;;5113336;28;944;-39
2022/05/12 06:52:56;;;;;;;;;;;29.20;40.60;;;;;;5113358;28;1020;-38
2022/05/12 06:55:24;;;;;;;;;;;29.20;40.60;;;;;;5113675;28;1030;-38
2022/05/12 06:57:51;;;;;;;;;;;29.20;40.70;;;;;;5113109;28;1190;-39
2022/05/12 07:00:18;;;;;;;;;;;29.20;40.60;;;;;;5113551;28;956;-41
2022/05/12 07:02:45;;;;;;;;;;;29.20;40.60;;;;;;5113827;28;984;-41
2022/05/12 07:05:14;;;;;;;;;;;29.20;40.80;;;;;;5112639;28;1910;-38
2022/05/12 07:07:41;;;;;;;;;;;29.10;40.70;;;;;;5112853;28;937;-38
2022/05/12 07:10:09;;;;;;;;;;;29.10;40.60;;;;;;5114027;28;905;-39
2022/05/12 07:12:36;;;;;;;;;;;29.20;40.70;;;;;;5113978;28;1023;-38
2022/05/12 07:15:03;;;;;;;;;;;29.20;40.70;;;;;;5112404;28;1016;-41
2022/05/12 07:17:32;;;;;;;;;;;29.20;40.80;;;;;;5112389;28;927;-41
2022/05/12 07:26:35;;;;;;;;;;;29.20;40.70;;;;;;5112527;28;948;-41
2022/05/12 07:28:18;;;;;;;;;;;29.10;40.80;;;;;;5115110;28;684;-38
2022/05/12 07:31:02;;;;;;;;;;;29.10;40.80;;;;;;5117219;28;976;-44
2022/05/12 07:33:30;;;;;;;;;;;29.20;40.80;;;;;;5116865;28;948;-45
2022/05/12 07:35:57;;;;;;;;;;;29.20;40.80;;;;;;5116066;28;971;-45
2022/05/12 07:38:25;;;;;;;;;;;29.30;40.80;;;;;;5116674;28;1001;-45
2022/05/12 07:40:53;;;;;;;;;;;29.20;40.60;;;;;;5115951;28;891;-45
2022/05/12 07:43:20;;;;;;;;;;;29.20;40.80;;;;;;5116399;28;999;-45
2022/05/12 07:45:47;;;;;;;;;;;29.20;40.80;;;;;;5117983;28;1886;-44
2022/05/12 07:48:14;;;;;;;;;;;29.20;40.80;;;;;;5117339;28;958;-45
2022/05/12 07:50:41;;;;;;;;;;;29.20;40.70;;;;;;5117460;28;1037;-45
2022/05/12 07:53:09;;;;;;;;;;;29.20;40.70;;;;;;5117435;28;949;-45
2022/05/12 07:55:37;;;;;;;;;;;29.30;40.70;;;;;;5116638;28;925;-45
2022/05/12 07:58:05;;;;;;;;;;;29.30;40.80;;;;;;5116637;28;1230;-45
2022/05/12 08:00:32;;;;;;;;;;;29.30;40.90;;;;;;5116378;28;1020;-43
2022/05/12 08:02:59;;;;;;;;;;;29.30;40.70;;;;;;5115941;28;1107;-46
2022/05/12 08:05:26;;;;;;;;;;;29.30;40.70;;;;;;5116654;28;1972;-45
2022/05/12 08:07:54;;;;;;;;;;;29.30;40.70;;;;;;5114931;28;977;-45
2022/05/12 08:10:21;;;;;;;;;;;29.30;40.60;;;;;;5115498;28;953;-44
2022/05/12 08:12:50;;;;;;;;;;;29.30;40.70;;;;;;5116277;28;1039;-45
2022/05/12 08:15:17;;;;;;;;;;;29.30;40.50;;;;;;5118015;28;980;-44
2022/05/12 08:17:44;;;;;;;;;;;29.30;40.70;;;;;;5116806;28;897;-45
2022/05/12 08:20:12;;;;;;;;;;;29.30;40.60;;;;;;5117268;28;940;-46
2022/05/12 08:22:39;;;;;;;;;;;29.30;40.60;;;;;;5116495;28;995;-46
2022/05/12 08:25:08;;;;;;;;;;;29.30;40.60;;;;;;5115851;28;1089;-45
2022/05/12 08:27:34;;;;;;;;;;;29.30;40.60;;;;;;5115212;28;1901;-40
2022/05/12 08:30:03;;;;;;;;;;;29.30;40.50;;;;;;5115890;28;975;-40
2022/05/12 08:32:30;;;;;;;;;;;29.30;40.60;;;;;;5115860;28;1179;-42
2022/05/12 08:34:56;;;;;;;;;;;29.30;40.50;;;;;;5114227;28;1007;-39
2022/05/12 08:37:23;;;;;;;;;;;29.40;40.50;;;;;;5115889;28;935;-43
2022/05/12 08:39:50;;;;;;;;;;;29.40;40.40;;;;;;5115155;28;1029;-42
2022/05/12 08:42:21;;;;;;;;;;;29.40;40.40;;;;;;5114910;28;874;-42
2022/05/12 08:44:48;;;;;;;;;;;29.40;40.40;;;;;;5115641;28;1011;-41
2022/05/12 08:47:20;;;;;;;;;;;29.40;40.50;;;;;;5113986;28;1907;-40
2022/05/12 08:49:50;;;;;;;;;;;29.40;40.40;;;;;;5116008;28;977;-42
2022/05/12 08:52:18;;;;;;;;;;;29.40;40.20;;;;;;5114871;28;877;-40
2022/05/12 08:54:48;;;;;;;;;;;29.40;40.30;;;;;;5115405;28;940;-42
2022/05/12 08:57:24;;;;;;;;;;;29.50;40.40;;;;;;5116192;28;1152;-43
2022/05/12 08:59:51;;;;;;;;;;;29.50;40.30;;;;;;5115098;28;924;-40
2022/05/12 09:02:21;;;;;;;;;;;29.50;40.40;;;;;;5113940;28;944;-44
2022/05/12 09:04:55;;;;;;;;;;;29.50;40.20;;;;;;5114571;28;991;-45
2022/05/12 09:07:27;;;;;;;;;;;29.50;40.30;;;;;;5115956;28;1992;-45
2022/05/12 09:09:56;;;;;;;;;;;29.50;40.30;;;;;;5115434;28;1015;-45
2022/05/12 09:12:31;;;;;;;;;;;29.40;40.30;;;;;;5115824;28;942;-45
2022/05/12 09:15:00;;;;;;;;;;;29.40;40.30;;;;;;5115924;28;877;-45
2022/05/12 09:17:32;;;;;;;;;;;29.40;40.40;;;;;;5115883;28;1005;-45
2022/05/12 09:19:59;;;;;;;;;;;29.50;40.40;;;;;;5115238;28;917;-44
2022/05/12 09:22:28;;;;;;;;;;;29.50;40.30;;;;;;5116028;28;953;-46
2022/05/12 09:24:56;;;;;;;;;;;29.40;40.40;;;;;;5115940;28;841;-44
2022/05/12 09:27:27;;;;;;;;;;;29.40;40.50;;;;;;5116151;28;1952;-40
2022/05/12 09:29:54;;;;;;;;;;;29.40;40.50;;;;;;5116164;28;869;-41
2022/05/12 09:32:23;;;;;;;;;;;29.40;40.40;;;;;;5116447;28;984;-42
2022/05/12 09:35:20;;;;;;;;;;;29.40;40.40;;;;;;5116033;28;1028;-40
2022/05/12 09:37:49;;;;;;;;;;;29.50;40.30;;;;;;5033887;28;1111;-43
2022/05/12 09:40:19;;;;;;;;;;;29.50;40.20;;;;;;5096480;28;930;-44
2022/05/12 09:42:47;;;;;;;;;;;29.40;40.20;;;;;;5117328;28;1039;-44
2022/05/12 09:45:25;;;;;;;;;;;29.40;40.40;;;;;;5116574;28;852;-43
2022/05/12 09:48:07;;;;;;;;;;;29.40;40.50;;;;;;5115502;28;1882;-43
2022/05/12 09:50:34;;;;;;;;;;;29.40;40.40;;;;;;5116419;28;944;-45
2022/05/12 09:53:03;;;;;;;;;;;29.40;40.50;;;;;;5114914;28;1356;-47
2022/05/12 09:55:31;;;;;;;;;;;29.30;40.50;;;;;;5115039;28;920;-44
2022/05/12 09:58:00;;;;;;;;;;;29.40;40.40;;;;;;5115967;28;1109;-45
2022/05/12 10:00:32;;;;;;;;;;;29.40;40.40;;;;;;5116004;28;949;-42
2022/05/12 10:08:43;;;;;;;;;;;29.40;40.40;;;;;;5115110;28;619;-44
2022/05/12 10:11:11;;;;;;;;;;;29.40;40.30;;;;;;5114932;28;1101;-39
2022/05/12 10:13:42;;;;;;;;;;;29.40;40.20;;;;;;5115953;28;952;-43
2022/05/12 10:16:09;;;;;;;;;;;29.40;40.20;;;;;;5115561;28;940;-42
2022/05/12 10:18:40;;;;;;;;;;;29.30;40.30;;;;;;5115155;28;920;-45
2022/05/12 10:21:11;;;;;;;;;;;29.30;40.10;;;;;;5114871;28;1000;-44
2022/05/12 10:23:42;;;;;;;;;;;29.20;40.10;;;;;;5115577;28;976;-44
2022/05/12 10:26:12;;;;;;;;;;;29.30;40.20;;;;;;5114985;28;1902;-43
2022/05/12 10:28:52;;;;;;;;;;;29.20;40.30;;;;;;5115522;28;1024;-45
2022/05/12 10:31:23;;;;;;;;;;;29.20;40.10;;;;;;5115213;28;921;-45
2022/05/12 10:33:53;;;;;;;;;;;29.20;40.30;;;;;;5115076;28;1020;-38
2022/05/12 10:36:29;;;;;;;;;;;29.20;40.20;;;;;;5114917;28;1033;-40
2022/05/12 10:39:00;;;;;;;;;;;29.20;40.20;;;;;;5114212;28;879;-44
2022/05/12 10:41:33;;;;;;;;;;;29.20;40.30;;;;;;5113008;28;1035;-44
2022/05/12 10:44:27;;;;;;;;;;;29.20;40.20;;;;;;5113522;28;1004;-43
2022/05/12 10:46:57;;;;;;;;;;;29.30;40.30;;;;;;5064384;28;1905;-44
2022/05/12 10:49:27;;;;;;;;;;;29.30;40.10;;;;;;5112424;28;990;-43
2022/05/12 10:52:01;;;;;;;;;;;29.20;41.30;;;;;;5111991;28;1016;-42
2022/05/12 10:54:31;;;;;;;;;;;29.20;40.10;;;;;;5110517;28;1489;-38
2022/05/12 10:57:05;;;;;;;;;;;29.30;40.20;;;;;;5111086;28;975;-39
2022/05/12 10:59:40;;;;;;;;;;;29.20;40.10;;;;;;5112812;28;991;-40
2022/05/12 11:02:10;;;;;;;;;;;29.30;40.30;;;;;;5110439;28;1348;-39
2022/05/12 11:04:41;;;;;;;;;;;29.20;40.10;;;;;;5111990;28;1047;-40
2022/05/12 11:07:12;;;;;;;;;;;29.20;40.10;;;;;;5111630;28;1910;-41
2022/05/12 11:09:40;;;;;;;;;;;29.30;40.20;;;;;;5111716;28;956;-44
2022/05/12 11:12:15;;;;;;;;;;;29.30;40.20;;;;;;5111964;28;1015;-41
2022/05/12 11:14:48;;;;;;;;;;;29.30;40.20;;;;;;5111188;28;1000;-42
2022/05/12 11:17:19;;;;;;;;;;;29.30;40.20;;;;;;5110291;28;1003;-43
2022/05/12 11:19:49;;;;;;;;;;;29.30;40.20;;;;;;5112514;28;944;-44
2022/05/12 11:22:23;;;;;;;;;;;29.20;40.00;;;;;;5113104;28;983;-43
2022/05/12 11:24:53;;;;;;;;;;;29.30;40.10;;;;;;5112842;28;898;-45
2022/05/12 11:27:28;;;;;;;;;;;29.30;40.10;;;;;;5113763;28;1999;-43
2022/05/12 11:30:04;;;;;;;;;;;29.30;40.00;;;;;;5113584;28;1046;-40
2022/05/12 11:32:45;;;;;;;;;;;29.30;40.10;;;;;;5112996;28;957;-45
2022/05/12 11:35:13;;;;;;;;;;;29.30;40.00;;;;;;5112012;28;989;-40
2022/05/12 11:37:54;;;;;;;;;;;29.30;40.00;;;;;;5111500;28;1036;-44
2022/05/12 11:40:36;;;;;;;;;;;29.30;40.10;;;;;;5111657;28;927;-44
2022/05/12 11:46:12;;;;;;;;;;;29.30;40.00;;;;;;5111135;28;992;-40
2022/05/12 11:48:43;;;;;;;;;;;29.30;40.10;;;;;;5111282;28;1986;-39
2022/05/12 11:51:29;;;;;;;;;;;29.30;40.00;;;;;;5112089;28;1056;-38
2022/05/12 11:53:58;;;;;;;;;;;29.30;40.10;;;;;;5112721;28;988;-40
2022/05/12 11:56:55;;;;;;;;;;;29.30;40.10;;;;;;5112140;28;1007;-43
2022/05/12 11:59:43;;;;;;;;;;;29.30;40.10;;;;;;5031430;28;865;-42
2022/05/12 12:02:25;;;;;;;;;;;29.30;40.00;;;;;;5105294;28;1328;-43
2022/05/12 12:04:53;;;;;;;;;;;29.30;40.00;;;;;;5111886;28;1407;-46
2022/05/12 12:07:35;;;;;;;;;;;29.30;40.10;;;;;;5111266;28;1925;-48
2022/05/12 12:10:04;;;;;;;;;;;29.30;40.00;;;;;;5110921;28;1278;-46
2022/05/12 12:12:50;;;;;;;;;;;29.30;40.00;;;;;;5111571;28;969;-46
2022/05/12 12:15:34;;;;;;;;;;;29.30;40.20;;;;;;5116459;28;952;-46
2022/05/12 12:18:24;;;;;;;;;;;29.30;40.00;;;;;;5116903;28;1790;-45
2022/05/12 12:20:53;;;;;;;;;;;29.30;40.00;;;;;;5116855;28;1859;-44
2022/05/12 12:23:22;;;;;;;;;;;29.30;40.00;;;;;;5117282;28;909;-47
2022/05/12 12:25:57;;;;;;;;;;;29.30;40.00;;;;;;5116567;28;1412;-45
2022/05/12 12:28:27;;;;;;;;;;;29.30;40.00;;;;;;5116301;28;2053;-45
2022/05/12 12:31:03;;;;;;;;;;;29.30;40.00;;;;;;5116271;28;1236;-45
2022/05/12 12:34:01;;;;;;;;;;;29.30;40.00;;;;;;5116236;28;985;-45
2022/05/12 12:36:42;;;;;;;;;;;29.30;40.00;;;;;;5117178;27;928;-46
2022/05/12 12:39:12;;;;;;;;;;;29.30;40.00;;;;;;5113205;28;1373;-45
2022/05/12 12:41:41;;;;;;;;;;;29.30;40.00;;;;;;5117331;28;953;-45
2022/05/12 12:44:11;;;;;;;;;;;29.30;40.00;;;;;;5115643;28;1003;-46
2022/05/12 12:46:46;;;;;;;;;;;29.30;40.00;;;;;;5117284;28;991;-45
2022/05/12 12:49:16;;;;;;;;;;;29.30;39.90;;;;;;5105102;28;1972;-45
2022/05/12 12:51:43;;;;;;;;;;;29.30;39.90;;;;;;5116548;28;985;-44
2022/05/12 12:57:07;;;;;;;;;;;29.30;40.00;;;;;;5115690;28;1054;-45
2022/05/12 12:59:35;;;;;;;;;;;29.40;39.90;;;;;;5115545;28;976;-45
2022/05/12 13:02:03;;;;;;;;;;;29.40;39.90;;;;;;5115024;28;950;-46
2022/05/12 13:04:31;;;;;;;;;;;29.40;39.90;;;;;;5115545;28;1133;-45
2022/05/12 13:06:59;;;;;;;;;;;29.40;39.90;;;;;;5114410;28;1000;-44
2022/05/12 13:09:28;;;;;;;;;;;29.30;39.90;;;;;;5114263;28;856;-45
2022/05/12 13:12:10;;;;;;;;;;;29.30;39.90;;;;;;5114430;28;1013;-45
2022/05/12 13:14:37;;;;;;;;;;;29.30;40.00;;;;;;5115520;28;942;-45
2022/05/12 13:17:05;;;;;;;;;;;29.40;39.90;;;;;;5115089;28;919;-45
2022/05/12 13:19:34;;;;;;;;;;;29.40;39.90;;;;;;5114257;28;1001;-43
2022/05/12 13:22:01;;;;;;;;;;;29.40;40.00;;;;;;5114456;28;959;-44
2022/05/12 13:24:32;;;;;;;;;;;29.40;39.90;;;;;;5114787;28;1016;-44
2022/05/12 13:27:01;;;;;;;;;;;29.40;40.00;;;;;;5114705;28;1208;-43
2022/05/12 13:29:29;;;;;;;;;;;29.40;39.90;;;;;;5113648;28;1905;-44
2022/05/12 13:32:00;;;;;;;;;;;29.40;39.90;;;;;;5112873;28;949;-45
2022/05/12 13:34:27;;;;;;;;;;;29.40;40.00;;;;;;5113493;28;1009;-45
2022/05/12 13:36:55;;;;;;;;;;;29.40;40.00;;;;;;5113455;28;987;-45
2022/05/12 13:39:48;;;;;;;;;;;29.40;40.00;;;;;;5113233;28;1061;-46
2022/05/12 13:42:16;;;;;;;;;;;29.40;40.00;;;;;;5113510;28;1076;-46
2022/05/12 13:44:48;;;;;;;;;;;29.40;40.00;;;;;;5113291;28;960;-47
2022/05/12 13:47:20;;;;;;;;;;;29.40;40.10;;;;;;5112359;28;1901;-45
2022/05/12 13:49:49;;;;;;;;;;;29.40;39.90;;;;;;5112718;28;1000;-45
2022/05/12 13:52:17;;;;;;;;;;;29.50;39.90;;;;;;5113339;28;1023;-45
2022/05/12 13:55:01;;;;;;;;;;;29.40;39.90;;;;;;5112452;28;1048;-45
2022/05/12 13:57:32;;;;;;;;;;;29.50;40.00;;;;;;5112967;28;1056;-45
2022/05/12 14:00:00;;;;;;;;;;;29.40;40.00;;;;;;5113488;28;869;-45
2022/05/12 14:02:38;;;;;;;;;;;29.40;40.00;;;;;;5111800;28;1027;-45
2022/05/12 14:05:08;;;;;;;;;;;29.40;40.00;;;;;;5113483;28;988;-44
2022/05/12 14:07:35;;;;;;;;;;;29.50;39.90;;;;;;5111526;28;1917;-45
2022/05/12 14:10:12;;;;;;;;;;;29.50;39.90;;;;;;5113374;28;903;-45
2022/05/12 14:19:13;;;;;;;;;;;29.50;39.90;;;;;;5114157;28;957;-45
2022/05/12 14:20:56;;;;;;;;;;;29.60;39.80;;;;;;5113926;28;1021;-45
2022/05/12 14:23:23;;;;;;;;;;;29.60;39.80;;;;;;5113386;28;1047;-45
2022/05/12 14:25:50;;;;;;;;;;;29.50;39.70;;;;;;5115099;28;1558;-45
2022/05/12 14:28:19;;;;;;;;;;;29.60;39.70;;;;;;5114293;28;1905;-48
2022/05/12 14:30:46;;;;;;;;;;;29.60;39.60;;;;;;5112952;28;1062;-45
2022/05/12 14:33:13;;;;;;;;;;;29.60;39.60;;;;;;5113529;28;971;-45
2022/05/12 14:35:39;;;;;;;;;;;29.60;39.60;;;;;;5112491;28;1019;-45
2022/05/12 14:38:07;;;;;;;;;;;29.60;39.60;;;;;;5112040;28;987;-45
2022/05/12 14:40:33;;;;;;;;;;;29.70;39.60;;;;;;5112089;28;996;-44
2022/05/12 14:43:00;;;;;;;;;;;29.70;39.60;;;;;;5112459;28;1094;-44
2022/05/12 14:45:29;;;;;;;;;;;29.70;39.60;;;;;;5113162;28;971;-45
2022/05/12 14:47:59;;;;;;;;;;;29.70;39.60;;;;;;5113107;28;1934;-45
2022/05/12 14:50:26;;;;;;;;;;;29.70;39.60;;;;;;5111497;28;912;-45
2022/05/12 14:52:53;;;;;;;;;;;29.70;39.60;;;;;;5112003;28;1011;-45
2022/05/12 14:55:22;;;;;;;;;;;29.70;39.60;;;;;;5111344;28;960;-39
2022/05/12 14:57:50;;;;;;;;;;;29.80;39.70;;;;;;5110950;28;973;-44
2022/05/12 15:00:17;;;;;;;;;;;29.80;39.70;;;;;;5113778;28;926;-43
2022/05/12 15:02:45;;;;;;;;;;;29.70;39.60;;;;;;5112152;28;945;-44
2022/05/12 15:05:14;;;;;;;;;;;29.80;39.70;;;;;;5110922;28;1846;-44
2022/05/12 15:07:41;;;;;;;;;;;29.70;39.60;;;;;;5112699;28;1898;-42
2022/05/12 15:10:10;;;;;;;;;;;29.80;39.70;;;;;;5111892;28;928;-43
2022/05/12 15:12:37;;;;;;;;;;;29.80;39.70;;;;;;5112083;28;1021;-44
2022/05/12 15:15:04;;;;;;;;;;;29.80;39.70;;;;;;5112156;28;844;-44
2022/05/12 15:17:33;;;;;;;;;;;29.80;39.70;;;;;;5110925;28;1042;-43
2022/05/12 15:20:02;;;;;;;;;;;29.80;39.60;;;;;;5111942;28;971;-44